Time;durP1;ratioP1;P1;durP2;ratioP2;P2;SDS_P1;SDS_P2;PMS_P1;PMS_P2;Temp;Humidity;BMP_temperature;BMP_pressure;BME280_temperature;BME280_humidity;BME280_pressure;Samples;Min_cycle;Max_cycle;Signal;HPM_P1;HPM_P2
2024/01/30 00:00:28;;;;;;;21.55;12.90;;;;;;;-3.65;100.00;99641.94;1226134;75;2913119;-66
2024/01/30 00:03:01;;;;;;;18.85;13.05;;;;;;;-3.52;100.00;99643.53;1225156;75;2917641;-67
2024/01/30 00:05:34;;;;;;;16.45;11.25;;;;;;;-3.51;100.00;99650.47;1225606;75;2921927;-65
2024/01/30 00:08:07;;;;;;;19.15;12.55;;;;;;;-3.65;100.00;99649.97;1225588;75;2912120;-63
2024/01/30 00:10:40;;;;;;;18.20;10.85;;;;;;;-3.64;100.00;99648.84;1225757;75;2914522;-65
2024/01/30 00:13:18;;;;;;;17.75;10.60;;;;;;;-3.61;100.00;99640.16;1225902;75;2914571;-66
2024/01/30 00:15:51;;;;;;;15.10;10.00;;;;;;;-3.60;100.00;99643.63;1226011;75;2915495;-67
2024/01/30 00:18:24;;;;;;;16.60;10.50;;;;;;;-3.68;100.00;99642.59;1226315;75;2916244;-65
2024/01/30 00:20:57;;;;;;;14.55;9.85;;;;;;;-3.65;100.00;99639.28;1225615;75;2916609;-68
2024/01/30 00:23:29;;;;;;;13.20;8.35;;;;;;;-3.65;100.00;99639.28;1225814;75;2915685;-65
2024/01/30 00:26:02;;;;;;;14.35;8.65;;;;;;;-3.72;100.00;99639.81;1225739;75;2916137;-68
2024/01/30 00:28:38;;;;;;;12.80;7.80;;;;;;;-3.71;100.00;99643.25;1225540;75;2919604;-66
2024/01/30 00:31:12;;;;;;;13.60;8.40;;;;;;;-3.68;100.00;99639.91;1225794;75;2915397;-65
2024/01/30 00:33:45;;;;;;;14.70;10.10;;;;;;;-3.88;100.00;99636.97;1225055;75;2914909;-65
2024/01/30 00:36:18;;;;;;;13.35;9.25;;;;;;;-3.92;100.00;99648.66;1225567;75;2913173;-66
2024/01/30 00:38:50;;;;;;;14.25;9.15;;;;;;;-3.96;100.00;99645.88;1225566;75;2918842;-64
2024/01/30 00:41:21;;;;;;;14.00;9.00;;;;;;;-3.94;100.00;99648.22;1225063;75;2911120;-65
2024/01/30 00:43:56;;;;;;;14.20;10.25;;;;;;;-4.01;100.00;99647.97;1225170;75;2916540;-65
2024/01/30 00:46:29;;;;;;;17.70;11.10;;;;;;;-4.01;100.00;99648.75;1226169;75;2912135;-65
2024/01/30 00:49:02;;;;;;;20.35;11.85;;;;;;;-4.05;100.00;99658.53;1225547;75;2917462;-67
2024/01/30 00:51:35;;;;;;;23.45;14.30;;;;;;;-4.17;100.00;99640.53;1225748;75;2918144;-64
2024/01/30 00:54:08;;;;;;;23.65;14.90;;;;;;;-4.16;100.00;99650.16;1224961;75;2924642;-66
2024/01/30 00:56:41;;;;;;;22.55;13.80;;;;;;;-4.04;100.00;99641.38;1225413;75;2915555;-65
2024/01/30 00:59:16;;;;;;;18.35;13.45;;;;;;;-3.96;100.00;99643.19;1225441;75;2924120;-65
2024/01/30 01:01:49;;;;;;;21.00;12.90;;;;;;;-3.89;100.00;99635.41;1225903;75;2914899;-63
2024/01/30 01:04:22;;;;;;;19.90;12.40;;;;;;;-3.98;100.00;99639.28;1226131;75;2907735;-65
2024/01/30 01:06:55;;;;;;;14.85;10.40;;;;;;;-3.90;100.00;99633.06;1225286;75;2915547;-66
2024/01/30 01:09:27;;;;;;;17.60;10.85;;;;;;;-3.92;100.00;99630.72;1225519;75;2913496;-63
2024/01/30 01:12:00;;;;;;;13.40;9.25;;;;;;;-3.96;100.00;99629.81;1225804;75;2912902;-67
2024/01/30 01:14:36;;;;;;;11.25;8.55;;;;;;;-4.01;100.00;99619.31;1225331;75;2920730;-63
2024/01/30 01:17:08;;;;;;;17.15;10.80;;;;;;;-4.06;100.00;99630.25;1226239;75;2912452;-64
2024/01/30 01:19:41;;;;;;;14.80;9.30;;;;;;;-4.01;100.00;99635.38;1224342;75;2915451;-65
2024/01/30 01:22:14;;;;;;;14.30;9.45;;;;;;;-4.09;100.00;99633.53;1225610;75;2912433;-65
2024/01/30 01:24:47;;;;;;;14.90;9.65;;;;;;;-4.19;100.00;99636.63;1225626;75;2914214;-65
2024/01/30 01:27:20;;;;;;;17.90;12.00;;;;;;;-4.35;100.00;99631.91;1225545;75;2915508;-64
2024/01/30 01:29:56;;;;;;;19.50;13.50;;;;;;;-4.38;100.00;99632.53;1225291;75;2914942;-67
2024/01/30 01:32:29;;;;;;;25.10;15.55;;;;;;;-4.33;100.00;99629.69;1225065;75;2918466;-65
2024/01/30 01:35:02;;;;;;;20.60;13.45;;;;;;;-4.21;100.00;99633.50;1225840;75;2918066;-67
2024/01/30 01:37:34;;;;;;;17.05;11.80;;;;;;;-4.30;100.00;99630.91;1225044;75;2927157;-64
2024/01/30 01:40:10;;;;;;;19.65;11.80;;;;;;;-4.39;100.00;99622.19;1225447;75;2920019;-66
2024/01/30 01:42:42;;;;;;;17.65;11.25;;;;;;;-4.53;100.00;99625.88;1225650;75;2916204;-67
2024/01/30 01:45:18;;;;;;;19.40;12.70;;;;;;;-4.51;100.00;99625.56;1225166;75;2912450;-65
2024/01/30 01:47:54;;;;;;;16.90;11.60;;;;;;;-4.46;100.00;99622.69;1223093;75;2936533;-67
2024/01/30 01:50:28;;;;;;;15.15;10.80;;;;;;;-4.64;100.00;99621.25;1221877;75;2955053;-63
2024/01/30 01:53:01;;;;;;;20.90;12.65;;;;;;;-4.65;100.00;99622.38;1225264;75;2911522;-65
2024/01/30 01:55:34;;;;;;;17.10;11.25;;;;;;;-4.56;100.00;99628.44;1225849;75;2917727;-63
2024/01/30 01:58:08;;;;;;;21.20;11.90;;;;;;;-4.55;100.00;99616.63;1225449;75;2919970;-65
2024/01/30 02:00:44;;;;;;;15.20;10.00;;;;;;;-4.53;100.00;99628.56;1225651;75;2914917;-64
2024/01/30 02:03:22;;;;;;;14.10;9.65;;;;;;;-4.56;100.00;99621.19;1225452;75;2920420;-64
2024/01/30 02:05:55;;;;;;;14.00;9.20;;;;;;;-4.57;100.00;99625.00;1225600;75;2923226;-65
2024/01/30 02:08:28;;;;;;;14.30;9.00;;;;;;;-4.61;100.00;99623.28;1225575;75;2912344;-64
2024/01/30 02:11:01;;;;;;;12.25;8.30;;;;;;;-4.66;100.00;99628.84;1225697;75;2919747;-65
2024/01/30 02:13:34;;;;;;;11.00;8.30;;;;;;;-4.69;100.00;99618.78;1225490;75;2917405;-64
2024/01/30 02:16:10;;;;;;;16.10;10.65;;;;;;;-4.71;100.00;99619.13;1226023;75;2915629;-67
2024/01/30 02:18:47;;;;;;;15.20;9.85;;;;;;;-4.78;100.00;99627.66;1225755;75;2914000;-63
2024/01/30 02:21:22;;;;;;;13.85;8.75;;;;;;;-4.68;100.00;99617.69;1226164;75;2909369;-65
2024/01/30 02:23:57;;;;;;;12.75;8.50;;;;;;;-4.72;100.00;99626.34;1225697;75;2920982;-66
2024/01/30 02:26:30;;;;;;;12.25;8.85;;;;;;;-4.82;100.00;99624.03;1226072;75;2912997;-62
2024/01/30 02:29:03;;;;;;;12.60;8.45;;;;;;;-4.78;100.00;99619.63;1225845;75;2908746;-64
2024/01/30 02:31:36;;;;;;;11.30;8.75;;;;;;;-4.79;100.00;99623.38;1225084;67;2917519;-67
2024/01/30 02:34:09;;;;;;;13.35;8.40;;;;;;;-4.83;100.00;99611.81;1225917;75;2921508;-64
2024/01/30 02:36:47;;;;;;;14.20;9.65;;;;;;;-4.87;100.00;99616.22;1225538;75;2912916;-64
2024/01/30 02:39:19;;;;;;;13.60;9.10;;;;;;;-4.88;100.00;99608.53;1226141;75;2915416;-67
2024/01/30 02:41:52;;;;;;;13.40;8.85;;;;;;;-4.83;100.00;99605.69;1225257;75;2916003;-65
2024/01/30 02:44:25;;;;;;;11.10;8.10;;;;;;;-4.92;100.00;99606.50;1225886;75;2913760;-66
2024/01/30 02:46:58;;;;;;;13.10;8.35;;;;;;;-4.89;100.00;99607.75;1225050;75;2920302;-65
2024/01/30 02:49:31;;;;;;;11.85;8.70;;;;;;;-4.97;100.00;99612.03;1225480;75;2914223;-64
2024/01/30 02:52:07;;;;;;;13.00;8.25;;;;;;;-4.90;100.00;99613.44;1225460;75;2918494;-66
2024/01/30 02:54:39;;;;;;;14.15;8.55;;;;;;;-4.97;100.00;99612.03;1225662;75;2927972;-64
2024/01/30 02:57:12;;;;;;;11.15;7.40;;;;;;;-4.97;100.00;99612.03;1225356;75;2912687;-64
2024/01/30 02:59:45;;;;;;;11.40;7.65;;;;;;;-4.89;100.00;99604.31;1225423;75;2923611;-66
2024/01/30 03:02:18;;;;;;;12.60;8.25;;;;;;;-4.98;100.00;99609.69;1224451;75;2920765;-65
2024/01/30 03:04:51;;;;;;;11.35;7.90;;;;;;;-5.03;100.00;99604.53;1226154;75;2913156;-66
2024/01/30 03:07:26;;;;;;;13.30;9.20;;;;;;;-5.18;100.00;99604.00;1225062;75;2920131;-64
2024/01/30 03:09:59;;;;;;;16.75;11.40;;;;;;;-5.24;100.00;99602.63;1225456;75;2922774;-66
2024/01/30 03:12:32;;;;;;;18.20;11.35;;;;;;;-5.20;100.00;99602.75;1225244;75;2918841;-64
2024/01/30 03:15:05;;;;;;;17.15;11.90;;;;;;;-5.28;100.00;99595.56;1225228;75;2918637;-66
2024/01/30 03:17:37;;;;;;;18.10;11.25;;;;;;;-5.16;100.00;99606.34;1225245;75;2928106;-66
2024/01/30 03:20:12;;;;;;;14.95;9.70;;;;;;;-5.15;100.00;99603.38;1225476;75;2914638;-65
2024/01/30 03:22:47;;;;;;;13.50;9.05;;;;;;;-5.16;100.00;99601.78;1225228;75;2917399;-64
2024/01/30 03:25:20;;;;;;;13.25;9.35;;;;;;;-5.08;100.00;99596.72;1225849;75;2926945;-66
2024/01/30 03:27:53;;;;;;;13.00;8.65;;;;;;;-5.14;100.00;99593.47;1224690;75;2916417;-64
2024/01/30 03:30:26;;;;;;;15.15;9.70;;;;;;;-5.10;100.00;99590.91;1225423;75;2921680;-64
2024/01/30 03:32:59;;;;;;;15.85;9.35;;;;;;;-5.16;100.00;99604.44;1225796;75;2925308;-65
2024/01/30 03:35:31;;;;;;;16.45;10.35;;;;;;;-5.15;100.00;99589.22;1225176;75;2916108;-64
2024/01/30 03:38:07;;;;;;;13.20;9.65;;;;;;;-5.14;100.00;99594.22;1225419;75;2920535;-65
2024/01/30 03:40:40;;;;;;;16.20;10.55;;;;;;;-5.25;100.00;99589.59;1225660;75;2919965;-65
2024/01/30 03:43:13;;;;;;;20.65;13.80;;;;;;;-5.23;100.00;99601.50;1225302;75;2926255;-64
2024/01/30 03:45:45;;;;;;;22.40;13.85;;;;;;;-5.16;100.00;99593.78;1225707;75;2916360;-65
2024/01/30 03:48:18;;;;;;;20.70;13.45;;;;;;;-5.11;100.00;99598.16;1225555;75;2916519;-65
2024/01/30 03:50:51;;;;;;;18.70;12.40;;;;;;;-5.11;100.00;99600.03;1225484;75;2922331;-66
2024/01/30 03:53:27;;;;;;;18.35;11.55;;;;;;;-5.14;100.00;99609.47;1224756;75;2925045;-62
2024/01/30 03:56:00;;;;;;;13.80;10.45;;;;;;;-5.13;100.00;99606.47;1225480;75;2917570;-64
2024/01/30 03:58:32;;;;;;;12.85;9.25;;;;;;;-5.22;100.00;99604.94;1225231;75;2926742;-64
2024/01/30 04:01:05;;;;;;;12.20;8.70;;;;;;;-5.26;100.00;99601.38;1224457;83;2921538;-66
2024/01/30 04:03:38;;;;;;;12.65;9.05;;;;;;;-5.50;100.00;99602.72;1224343;75;2921099;-67
2024/01/30 04:06:11;;;;;;;12.65;8.90;;;;;;;-5.49;100.00;99598.19;1225046;75;2940428;-64
2024/01/30 04:08:47;;;;;;;13.25;9.35;;;;;;;-5.41;100.00;99597.34;1224692;75;2919298;-64
2024/01/30 04:11:22;;;;;;;11.85;8.25;;;;;;;-5.37;100.00;99598.28;1224876;83;2914306;-63
2024/01/30 04:13:54;;;;;;;12.60;8.65;;;;;;;-5.38;100.00;99602.84;1224910;75;2923222;-65
2024/01/30 04:16:27;;;;;;;12.05;7.50;;;;;;;-5.41;100.00;99603.50;1224600;75;2928275;-66
2024/01/30 04:19:01;;;;;;;12.80;7.80;;;;;;;-5.44;100.00;99600.66;1225176;75;2921571;-64
2024/01/30 04:21:34;;;;;;;13.80;7.70;;;;;;;-5.43;100.00;99603.03;1224185;75;2931592;-66
2024/01/30 04:24:10;;;;;;;11.80;8.25;;;;;;;-5.56;100.00;99601.34;1224319;75;2919897;-65
2024/01/30 04:26:43;;;;;;;12.30;8.35;;;;;;;-5.68;100.00;99606.56;1223573;75;2932489;-65
2024/01/30 04:29:16;;;;;;;15.25;10.30;;;;;;;-5.72;100.00;99598.44;1225592;75;2921186;-67
2024/01/30 04:31:49;;;;;;;13.75;9.75;;;;;;;-5.58;100.00;99601.66;1223734;75;2917941;-65
2024/01/30 04:34:21;;;;;;;13.10;9.25;;;;;;;-5.57;100.00;99597.13;1224315;75;2923291;-67
2024/01/30 04:36:55;;;;;;;15.25;9.90;;;;;;;-5.68;100.00;99604.66;1224530;75;2922633;-66
2024/01/30 04:39:30;;;;;;;17.95;10.80;;;;;;;-5.70;100.00;99601.56;1223887;75;2924321;-65
2024/01/30 04:42:03;;;;;;;18.05;11.95;;;;;;;-5.48;100.00;99608.53;1224397;75;2923162;-65
2024/01/30 04:44:36;;;;;;;17.55;12.40;;;;;;;-5.56;100.00;99601.34;1224202;75;2924602;-67
2024/01/30 04:47:11;;;;;;;19.20;12.50;;;;;;;-5.46;100.00;99603.66;1224764;75;2926491;-65
2024/01/30 04:49:44;;;;;;;17.25;11.35;;;;;;;-5.49;100.00;99606.19;1224246;75;2946456;-64
2024/01/30 04:52:17;;;;;;;13.45;9.80;;;;;;;-5.51;100.00;99600.38;1223956;75;2927232;-65
2024/01/30 04:54:53;;;;;;;16.90;10.85;;;;;;;-5.60;100.00;99597.75;1224486;75;2938383;-66
2024/01/30 04:57:26;;;;;;;15.45;10.20;;;;;;;-5.62;100.00;99595.41;1223098;75;2925339;-66
2024/01/30 04:59:58;;;;;;;13.55;10.05;;;;;;;-5.71;100.00;99597.31;1223681;75;2958320;-66
2024/01/30 05:02:32;;;;;;;13.05;9.20;;;;;;;-5.63;100.00;99596.50;1225105;75;2922484;-63
2024/01/30 05:05:05;;;;;;;14.35;9.55;;;;;;;-5.80;100.00;99608.03;1224473;75;2922242;-65
2024/01/30 05:07:37;;;;;;;13.40;9.40;;;;;;;-5.76;100.00;99597.50;1224757;75;2926916;-64
2024/01/30 05:10:13;;;;;;;11.15;8.80;;;;;;;-5.75;100.00;99593.72;1223668;75;2917698;-66
2024/01/30 05:12:46;;;;;;;14.00;9.45;;;;;;;-5.80;100.00;99608.03;1224025;75;2932910;-65
2024/01/30 05:15:19;;;;;;;14.40;9.60;;;;;;;-5.75;100.00;99608.94;1224735;75;2925520;-65
2024/01/30 05:17:52;;;;;;;13.15;8.95;;;;;;;-5.85;100.00;99607.38;1224397;75;2917926;-65
2024/01/30 05:20:27;;;;;;;13.75;9.10;;;;;;;-5.74;100.00;99608.63;1224384;75;2925269;-64
2024/01/30 05:23:00;;;;;;;12.75;8.80;;;;;;;-5.75;100.00;99603.59;1224080;75;2947600;-66
2024/01/30 05:25:36;;;;;;;11.45;8.20;;;;;;;-5.76;100.00;99608.16;1224055;75;2929142;-67
2024/01/30 05:28:09;;;;;;;13.35;8.80;;;;;;;-5.73;100.00;99606.72;1224695;75;2921549;-66
2024/01/30 05:30:42;;;;;;;14.20;9.60;;;;;;;-5.89;100.00;99614.44;1224287;75;2921637;-66
2024/01/30 05:33:15;;;;;;;13.65;10.10;;;;;;;-5.75;100.00;99608.94;1224779;75;2924788;-65
2024/01/30 05:35:48;;;;;;;15.30;9.85;;;;;;;-5.75;100.00;99615.03;1223593;75;2934489;-63
2024/01/30 05:38:21;;;;;;;12.80;9.30;;;;;;;-5.78;100.00;99613.03;1223900;75;2928378;-64
2024/01/30 05:40:57;;;;;;;12.75;9.10;;;;;;;-5.88;100.00;99610.69;1189808;75;5629494;-65
2024/01/30 05:43:30;;;;;;;11.75;8.65;;;;;;;-5.75;100.00;99614.28;1223885;75;2924005;-65
2024/01/30 05:46:03;;;;;;;12.55;8.95;;;;;;;-5.76;100.00;99620.72;1223752;75;2929235;-64
2024/01/30 05:48:36;;;;;;;12.70;9.25;;;;;;;-5.78;100.00;99613.03;1223212;75;2930314;-65
2024/01/30 05:51:10;;;;;;;13.40;9.15;;;;;;;-5.81;100.00;99609.09;1224300;75;2919321;-65
2024/01/30 05:53:43;;;;;;;15.75;11.60;;;;;;;-5.91;100.00;99606.78;1224342;75;2923691;-66
2024/01/30 05:56:19;;;;;;;19.15;12.45;;;;;;;-5.82;100.00;99610.22;1223247;75;2929126;-67
2024/01/30 05:58:52;;;;;;;15.05;11.35;;;;;;;-5.79;100.00;99614.91;1223527;75;2935851;-66
2024/01/30 06:01:25;;;;;;;15.05;10.05;;;;;;;-5.76;100.00;99600.16;1223511;75;2933379;-67
2024/01/30 06:03:58;;;;;;;13.60;9.70;;;;;;;-5.75;100.00;99604.38;1223791;75;2919523;-65
2024/01/30 06:06:31;;;;;;;12.95;9.20;;;;;;;-5.72;100.00;99611.75;1223862;75;2938179;-64
2024/01/30 06:09:04;;;;;;;13.75;9.70;;;;;;;-5.73;100.00;99612.06;1223452;75;2940032;-64
2024/01/30 06:11:39;;;;;;;12.55;9.15;;;;;;;-5.81;100.00;99617.09;1223538;75;2928472;-63
2024/01/30 06:14:12;;;;;;;13.90;10.10;;;;;;;-5.75;100.00;99615.03;1223967;75;2924475;-66
2024/01/30 06:16:45;;;;;;;15.85;10.10;;;;;;;-5.80;100.00;99605.34;1224817;75;2925848;-68
2024/01/30 06:19:18;;;;;;;13.90;9.05;;;;;;;-5.79;100.00;99614.91;1223616;75;2921320;-66
2024/01/30 06:21:51;;;;;;;12.85;9.65;;;;;;;-5.79;100.00;99606.13;1223912;75;2919043;-65
2024/01/30 06:24:24;;;;;;;15.30;10.70;;;;;;;-5.82;100.00;99606.75;1223796;75;2925815;-64
2024/01/30 06:26:59;;;;;;;17.05;12.50;;;;;;;-5.75;100.00;99609.72;1224308;75;2925823;-64
2024/01/30 06:29:32;;;;;;;19.30;13.45;;;;;;;-5.57;100.00;99610.44;1224338;75;2923102;-67
2024/01/30 06:32:05;;;;;;;20.90;13.55;;;;;;;-5.69;100.00;99611.13;1224489;75;2920227;-63
2024/01/30 06:34:39;;;;;;;18.95;12.10;;;;;;;-5.59;100.00;99604.66;1223737;75;2933080;-64
2024/01/30 06:37:12;;;;;;;15.45;10.45;;;;;;;-5.54;100.00;99607.13;1224564;75;2928083;-65
2024/01/30 06:39:45;;;;;;;15.90;10.80;;;;;;;-5.73;100.00;99612.84;1225389;75;2924424;-65
2024/01/30 06:42:20;;;;;;;16.45;10.65;;;;;;;-5.62;100.00;99610.63;1224079;75;2928963;-64
2024/01/30 06:44:53;;;;;;;14.90;10.05;;;;;;;-5.63;100.00;99614.38;1223642;75;2929418;-65
2024/01/30 06:47:26;;;;;;;17.50;10.90;;;;;;;-5.64;100.00;99618.94;1223811;75;2925170;-67
2024/01/30 06:49:59;;;;;;;16.25;10.70;;;;;;;-5.63;100.00;99611.72;1224485;75;2934296;-64
2024/01/30 06:52:32;;;;;;;18.60;11.60;;;;;;;-5.69;100.00;99619.13;1224389;75;2930180;-65
2024/01/30 06:55:08;;;;;;;19.35;12.05;;;;;;;-5.58;100.00;99620.34;1224686;75;2922150;-64
2024/01/30 06:57:43;;;;;;;15.25;10.95;;;;;;;-5.44;100.00;99616.69;1224149;75;2924290;-65
2024/01/30 07:00:19;;;;;;;14.10;10.80;;;;;;;-5.41;100.00;99630.19;1223720;67;2929172;-65
2024/01/30 07:02:52;;;;;;;13.85;9.70;;;;;;;-5.31;100.00;99629.03;1222682;75;2923000;-64
2024/01/30 07:05:25;;;;;;;13.55;9.60;;;;;;;-5.20;100.00;99627.56;1222625;75;2932689;-66
2024/01/30 07:07:59;;;;;;;14.60;10.05;;;;;;;-5.16;100.00;99638.38;1222652;75;2930598;-64
2024/01/30 07:10:32;;;;;;;14.65;10.95;;;;;;;-5.01;100.00;99634.38;1223403;75;2922696;-66
2024/01/30 07:13:09;;;;;;;16.50;11.90;;;;;;;-4.59;100.00;99624.53;1223415;75;2926611;-63
2024/01/30 07:15:42;;;;;;;17.70;12.20;;;;;;;-3.03;100.00;99630.19;1223469;75;2927364;-64
2024/01/30 07:18:15;;;;;;;15.30;10.85;;;;;;;-2.20;100.00;99627.97;1223928;75;2933900;-66
2024/01/30 07:20:49;;;;;;;18.45;11.25;;;;;;;-1.03;100.00;99622.44;1223928;75;2928157;-65
2024/01/30 07:23:22;;;;;;;15.70;11.10;;;;;;;0.67;84.03;99622.69;1222934;75;2923750;-65
2024/01/30 07:25:55;;;;;;;20.40;13.00;;;;;;;1.09;80.25;99638.00;1223791;75;2927627;-63
2024/01/30 07:28:30;;;;;;;20.00;13.15;;;;;;;1.79;79.94;99633.91;1221822;75;2932070;-63
2024/01/30 07:31:03;;;;;;;22.30;14.35;;;;;;;1.98;76.85;99632.97;1223727;75;2921519;-65
2024/01/30 07:33:36;;;;;;;21.60;14.95;;;;;;;2.01;77.61;99643.81;1223980;75;2919539;-65
2024/01/30 07:36:10;;;;;;;25.00;16.20;;;;;;;1.68;76.95;99642.66;1224078;75;2931081;-64
2024/01/30 07:38:43;;;;;;;23.15;15.45;;;;;;;2.78;75.18;99644.16;1223141;75;2927450;-65
2024/01/30 07:41:16;;;;;;;19.55;14.30;;;;;;;4.04;70.88;99640.22;1224578;75;2922527;-66
2024/01/30 07:43:52;;;;;;;18.80;14.30;;;;;;;5.26;66.65;99646.53;1224201;75;2932267;-64
2024/01/30 07:46:25;;;;;;;19.40;13.50;;;;;;;6.18;63.13;99646.63;1224248;75;2931277;-62
2024/01/30 07:48:58;;;;;;;15.65;11.60;;;;;;;6.70;58.76;99637.75;1222893;75;2925629;-63
2024/01/30 07:51:32;;;;;;;14.75;11.25;;;;;;;4.78;64.09;99629.91;1223703;75;2927000;-65
2024/01/30 07:54:06;;;;;;;14.60;11.05;;;;;;;4.86;62.13;99632.22;1224507;75;2921022;-63
2024/01/30 07:56:38;;;;;;;17.70;12.45;;;;;;;2.60;68.72;99637.81;1224783;75;2922590;-64
2024/01/30 07:59:16;;;;;;;16.20;11.60;;;;;;;2.45;70.74;99637.69;1224257;75;2924095;-65
2024/01/30 08:01:49;;;;;;;14.90;10.70;;;;;;;2.69;69.81;99630.94;1224897;75;2917112;-66
2024/01/30 08:04:22;;;;;;;11.60;8.75;;;;;;;3.69;67.93;99638.94;1224871;75;2921592;-64
2024/01/30 08:06:55;;;;;;;11.70;9.05;;;;;;;3.84;68.91;99645.19;1224812;75;2925142;-64
2024/01/30 08:09:28;;;;;;;14.90;10.20;;;;;;;4.86;64.92;99636.88;1223380;75;2929627;-65
2024/01/30 08:12:00;;;;;;;20.85;14.25;;;;;;;4.63;63.34;99642.69;1224472;75;2919962;-67
2024/01/30 08:14:36;;;;;;;20.00;13.85;;;;;;;5.86;61.45;99644.03;1224318;75;2923706;-65
2024/01/30 08:17:09;;;;;;;19.85;14.85;;;;;;;5.44;62.87;99643.00;1224782;75;2934496;-64
2024/01/30 08:19:42;;;;;;;24.80;16.55;;;;;;;4.09;64.63;99649.91;1225064;75;2924437;-67
2024/01/30 08:22:15;;;;;;;20.65;15.45;;;;;;;5.30;63.03;99643.81;1225269;75;2920700;-66
2024/01/30 08:24:48;;;;;;;20.45;14.50;;;;;;;5.66;60.92;99641.78;1225133;75;2921771;-64
2024/01/30 08:27:21;;;;;;;18.45;13.50;;;;;;;6.69;60.38;99638.94;1224164;75;2924253;-64
2024/01/30 08:29:57;;;;;;;16.25;11.90;;;;;;;8.32;56.39;99638.34;1224351;75;2922103;-64
2024/01/30 08:32:29;;;;;;;16.45;11.95;;;;;;;8.05;55.43;99637.53;1224373;75;2922541;-65
2024/01/30 08:35:03;;;;;;;17.00;13.25;;;;;;;7.59;55.56;99631.44;1223892;75;2920022;-67
2024/01/30 08:37:36;;;;;;;18.10;12.95;;;;;;;7.46;56.45;99627.72;1224138;75;2918723;-64
2024/01/30 08:40:11;;;;;;;20.40;12.10;;;;;;;7.71;55.62;99637.56;1224264;75;2922993;-64
2024/01/30 08:42:44;;;;;;;16.70;10.90;;;;;;;8.83;53.36;99632.16;1223594;75;2928731;-64
2024/01/30 08:45:19;;;;;;;16.25;10.85;;;;;;;8.75;52.63;99628.75;1224270;75;2915859;-67
2024/01/30 08:47:52;;;;;;;20.95;13.70;;;;;;;5.75;59.38;99631.28;1224315;75;2918284;-66
2024/01/30 08:50:25;;;;;;;20.10;14.50;;;;;;;4.66;62.28;99620.97;1224006;75;2921948;-65
2024/01/30 08:52:58;;;;;;;18.65;12.70;;;;;;;5.15;60.73;99629.50;1224343;75;2922073;-64
2024/01/30 08:55:33;;;;;;;15.20;10.85;;;;;;;7.32;57.45;99611.53;1223825;75;2924180;-66
2024/01/30 08:58:06;;;;;;;20.25;14.00;;;;;;;5.14;62.06;99617.06;1224590;75;2919675;-65
2024/01/30 09:00:42;;;;;;;19.90;13.80;;;;;;;5.91;62.45;99622.63;1224146;75;2930242;-65
2024/01/30 09:03:14;;;;;;;17.20;12.90;;;;;;;5.91;61.28;99619.91;1223898;75;2928692;-64
2024/01/30 09:05:47;;;;;;;18.00;13.60;;;;;;;5.40;62.60;99612.38;1224172;75;2925009;-66
2024/01/30 09:08:21;;;;;;;19.95;13.95;;;;;;;6.17;62.12;99624.09;1223853;75;2938570;-66
2024/01/30 09:10:53;;;;;;;20.90;12.85;;;;;;;6.48;60.28;99626.25;1224245;75;2926329;-66
2024/01/30 09:13:26;;;;;;;19.25;13.80;;;;;;;6.87;59.49;99619.72;1224353;75;2920840;-66
2024/01/30 09:16:02;;;;;;;27.35;15.60;;;;;;;3.99;65.84;99619.72;1223977;75;2934969;-64
2024/01/30 09:18:35;;;;;;;26.10;15.40;;;;;;;3.75;67.52;99617.69;1224154;75;2927035;-66
2024/01/30 09:21:08;;;;;;;25.35;15.40;;;;;;;3.42;67.09;99614.06;1224137;75;2930341;-65
2024/01/30 09:23:41;;;;;;;17.70;12.25;;;;;;;5.47;63.99;99612.34;1224205;75;2925903;-64
2024/01/30 09:26:14;;;;;;;17.95;12.35;;;;;;;5.29;62.44;99607.75;1223874;75;2923980;-65
2024/01/30 09:28:47;;;;;;;20.80;12.45;;;;;;;4.79;64.24;99615.19;1224493;75;2924063;-67
2024/01/30 09:31:22;;;;;;;23.35;13.40;;;;;;;5.52;62.19;99620.84;1224253;75;2917683;-64
2024/01/30 09:33:58;;;;;;;17.55;12.35;;;;;;;5.77;62.21;99625.41;1223389;75;2986830;-65
2024/01/30 09:36:30;;;;;;;19.75;12.80;;;;;;;5.90;60.70;99618.38;1224885;75;2923208;-66
2024/01/30 09:39:06;;;;;;;29.35;14.75;;;;;;;6.11;59.90;99616.75;1224097;75;2922349;-64
2024/01/30 09:41:52;;;;;;;20.65;12.55;;;;;;;6.82;59.15;99613.53;1224938;75;2919184;-64
2024/01/30 09:44:26;;;;;;;16.90;11.55;;;;;;;7.50;57.24;99608.59;1224649;75;2927005;-65
2024/01/30 09:47:03;;;;;;;16.85;10.65;;;;;;;7.43;56.63;99604.78;1224375;75;2918958;-63
2024/01/30 09:49:37;;;;;;;19.05;12.35;;;;;;;7.09;56.56;99607.44;1224737;75;2922948;-66
2024/01/30 09:52:12;;;;;;;18.10;11.75;;;;;;;7.44;55.46;99603.59;1224764;75;2919357;-66
2024/01/30 09:54:46;;;;;;;16.80;10.55;;;;;;;8.47;54.00;99600.72;1224055;75;2921417;-66
2024/01/30 09:57:20;;;;;;;20.60;11.15;;;;;;;8.74;52.61;99599.91;1223834;75;2919903;-65
2024/01/30 09:59:53;;;;;;;15.05;10.10;;;;;;;8.73;53.22;99598.34;1222829;75;2921848;-65
2024/01/30 10:02:29;;;;;;;19.10;11.10;;;;;;;9.27;51.96;99594.69;1223659;75;2919070;-65
2024/01/30 10:05:02;;;;;;;18.70;10.10;;;;;;;9.30;50.98;99593.84;1223471;75;2917353;-65
2024/01/30 10:07:35;;;;;;;15.60;10.75;;;;;;;9.35;51.31;99590.63;1223044;75;2918605;-67
2024/01/30 10:10:10;;;;;;;19.00;11.85;;;;;;;9.82;50.09;99587.75;1224725;75;2915375;-65
2024/01/30 10:12:44;;;;;;;16.90;11.10;;;;;;;10.36;50.24;99590.06;1224040;75;2922867;-66
2024/01/30 10:15:17;;;;;;;15.55;10.15;;;;;;;10.58;49.63;99584.88;1224627;75;2920964;-65
2024/01/30 10:17:53;;;;;;;14.05;9.25;;;;;;;11.40;48.06;99583.94;1224726;75;2930398;-65
2024/01/30 10:20:28;;;;;;;14.65;9.40;;;;;;;11.79;46.85;99582.09;1224385;75;2929380;-65
2024/01/30 10:23:01;;;;;;;15.85;10.80;;;;;;;11.04;47.96;99577.47;1224377;75;2923588;-66
2024/01/30 10:25:35;;;;;;;14.10;9.25;;;;;;;11.09;47.71;99579.69;1223960;75;2923666;-65
2024/01/30 10:28:09;;;;;;;18.10;11.45;;;;;;;10.22;49.80;99580.22;1224693;75;2915595;-65
2024/01/30 10:30:42;;;;;;;19.90;10.35;;;;;;;11.34;48.68;99572.00;1224898;75;2919616;-65
2024/01/30 10:33:18;;;;;;;17.35;11.30;;;;;;;10.51;48.95;99565.09;1224330;75;2930617;-65
2024/01/30 10:35:52;;;;;;;19.15;11.35;;;;;;;10.11;49.73;99560.53;1223754;75;2920307;-66
2024/01/30 10:38:28;;;;;;;16.05;10.40;;;;;;;10.78;48.80;99557.38;1223684;75;2929250;-66
2024/01/30 10:41:03;;;;;;;14.20;9.55;;;;;;;9.73;49.90;99562.91;1224209;75;2920191;-66
2024/01/30 10:43:39;;;;;;;15.95;8.60;;;;;;;10.35;48.47;99554.94;1224147;75;2924785;-67
2024/01/30 10:46:21;;;;;;;16.25;9.35;;;;;;;9.30;49.68;99547.38;1224491;75;2918870;-65
2024/01/30 10:49:01;;;;;;;13.35;8.30;;;;;;;9.85;48.47;99545.84;1223492;75;2922993;-67
2024/01/30 10:51:38;;;;;;;12.25;8.80;;;;;;;10.79;48.32;99544.47;1224164;75;2920617;-64
2024/01/30 10:54:11;;;;;;;12.15;8.30;;;;;;;10.16;47.97;99540.09;1224410;75;2924052;-65
2024/01/30 10:56:46;;;;;;;11.50;8.05;;;;;;;10.10;48.22;99541.78;1224164;75;2922929;-66
2024/01/30 10:59:19;;;;;;;14.90;7.75;;;;;;;10.00;48.22;99529.88;1225147;75;2916409;-65
2024/01/30 11:01:52;;;;;;;13.30;8.00;;;;;;;10.18;48.35;99535.72;1225032;75;2921346;-64
2024/01/30 11:04:28;;;;;;;15.25;8.15;;;;;;;10.42;48.26;99539.09;1224316;75;2932029;-65
2024/01/30 11:07:02;;;;;;;14.90;8.75;;;;;;;10.63;48.28;99524.13;1224547;75;2917540;-65
2024/01/30 11:09:41;;;;;;;14.05;9.10;;;;;;;10.23;49.81;99524.25;1223724;75;2929831;-64
2024/01/30 11:12:17;;;;;;;16.35;9.45;;;;;;;9.65;49.62;99509.59;1224563;75;2920743;-66
2024/01/30 11:14:49;;;;;;;20.10;8.80;;;;;;;10.13;50.38;99508.88;1224929;75;2920484;-66
2024/01/30 11:17:22;;;;;;;13.40;8.65;;;;;;;11.87;48.13;99498.38;1222914;75;2934042;-67
2024/01/30 11:19:58;;;;;;;15.10;9.30;;;;;;;10.75;49.23;99508.16;1221617;75;2911775;-64
2024/01/30 11:22:33;;;;;;;13.75;9.05;;;;;;;10.59;48.88;99504.25;1224636;75;2926479;-66
2024/01/30 11:25:07;;;;;;;15.35;9.05;;;;;;;11.04;49.13;99505.41;1224420;75;2921745;-64
2024/01/30 11:27:41;;;;;;;16.45;9.10;;;;;;;11.23;47.93;99493.56;1224604;75;2922056;-66
2024/01/30 11:30:14;;;;;;;12.25;8.30;;;;;;;11.56;47.88;99485.16;1223786;75;2923471;-65